Aviation Digital Data Service (ADDS)

Output produced by METARs form (1453 UTC 24 August 2019)
found at http://www.aviationweather.gov/metar/data/
 
METAR text: UHPP 241400Z 11002MPS 9999 BKN015 10/09 Q1021 R16R/CLRD70 NOSIG RMK QFE763/1017
Conditions at: UHPP (PETROPAVLOVSK-KA, RU) observed 1400 UTC 24 August 2019
Temperature: 10.0°C (50°F)
Dewpoint: 9.0°C (48°F) [RH = 93%]
Pressure (altimeter): 30.15 inches Hg (1021.0 mb)
Winds: from the ESE (110 degrees) at 5 MPH (4 knots; 2.1 m/s)
Visibility: 6 or more miles (10+ km)
Ceiling: 1500 feet AGL
Clouds: broken clouds at 1500 feet AGL
Weather: no significant weather observed at this time

METAR text: UHPP 241300Z 11002MPS 9999 OVC013 10/09 Q1021 R16R/CLRD70 NOSIG RMK QFE763/1017
Conditions at: UHPP (PETROPAVLOVSK-KA, RU) observed 1300 UTC 24 August 2019
Temperature: 10.0°C (50°F)
Dewpoint: 9.0°C (48°F) [RH = 93%]
Pressure (altimeter): 30.15 inches Hg (1021.0 mb)
Winds: from the ESE (110 degrees) at 5 MPH (4 knots; 2.1 m/s)
Visibility: 6 or more miles (10+ km)
Ceiling: 1300 feet AGL
Clouds: overcast cloud deck at 1300 feet AGL
Weather: no significant weather observed at this time

METAR text: UHPP 241200Z 13002MPS 9999 OVC012 11/09 Q1022 R16R/CLRD70 NOSIG RMK QFE763/1018
Conditions at: UHPP (PETROPAVLOVSK-KA, RU) observed 1200 UTC 24 August 2019
Temperature: 11.0°C (52°F)
Dewpoint: 9.0°C (48°F) [RH = 87%]
Pressure (altimeter): 30.18 inches Hg (1022.0 mb)
Winds: from the SE (130 degrees) at 5 MPH (4 knots; 2.1 m/s)
Visibility: 6 or more miles (10+ km)
Ceiling: 1200 feet AGL
Clouds: overcast cloud deck at 1200 feet AGL
Weather: no significant weather observed at this time

METAR text: UHPP 241100Z 10002MPS 9999 OVC012 11/10 Q1022 R16R/CLRD70 NOSIG RMK QFE763/1018
Conditions at: UHPP (PETROPAVLOVSK-KA, RU) observed 1100 UTC 24 August 2019
Temperature: 11.0°C (52°F)
Dewpoint: 10.0°C (50°F) [RH = 94%]
Pressure (altimeter): 30.18 inches Hg (1022.0 mb)
Winds: from the E (100 degrees) at 5 MPH (4 knots; 2.1 m/s)
Visibility: 6 or more miles (10+ km)
Ceiling: 1200 feet AGL
Clouds: overcast cloud deck at 1200 feet AGL
Weather: no significant weather observed at this time

METAR text: UHPP 241000Z 15003MPS 9999 OVC009 11/10 Q1022 R16R/CLRD70 NOSIG RMK QFE763/1018
Conditions at: UHPP (PETROPAVLOVSK-KA, RU) observed 1000 UTC 24 August 2019
Temperature: 11.0°C (52°F)
Dewpoint: 10.0°C (50°F) [RH = 94%]
Pressure (altimeter): 30.18 inches Hg (1022.0 mb)
Winds: from the SSE (150 degrees) at 7 MPH (6 knots; 3.1 m/s)
Visibility: 6 or more miles (10+ km)
Ceiling: 900 feet AGL
Clouds: overcast cloud deck at 900 feet AGL
Weather: no significant weather observed at this time

METAR text: UHPP 240930Z 16004MPS 9999 OVC008 11/10 Q1022 R16R/CLRD70 NOSIG RMK QFE763/1018
Conditions at: UHPP (PETROPAVLOVSK-KA, RU) observed 0930 UTC 24 August 2019
Temperature: 11.0°C (52°F)
Dewpoint: 10.0°C (50°F) [RH = 94%]
Pressure (altimeter): 30.18 inches Hg (1022.0 mb)
Winds: from the SSE (160 degrees) at 9 MPH (8 knots; 4.1 m/s)
Visibility: 6 or more miles (10+ km)
Ceiling: 800 feet AGL
Clouds: overcast cloud deck at 800 feet AGL
Weather: no significant weather observed at this time

METAR text: UHPP 240900Z 16003MPS 9999 OVC010 11/11 Q1022 R16R/CLRD70 NOSIG RMK MT OBSC QFE763/1018
Conditions at: UHPP (PETROPAVLOVSK-KA, RU) observed 0900 UTC 24 August 2019
Temperature: 11.0°C (52°F)
Dewpoint: 11.0°C (52°F) [RH = 100%]
Pressure (altimeter): 30.18 inches Hg (1022.0 mb)
Winds: from the SSE (160 degrees) at 7 MPH (6 knots; 3.1 m/s)
Visibility: 6 or more miles (10+ km)
Ceiling: 1000 feet AGL
Clouds: overcast cloud deck at 1000 feet AGL
Weather: no significant weather observed at this time

METAR text: UHPP 240800Z 16003MPS 9999 OVC010 12/11 Q1021 R16R/CLRD70 NOSIG RMK MT OBSC QFE763/1017
Conditions at: UHPP (PETROPAVLOVSK-KA, RU) observed 0800 UTC 24 August 2019
Temperature: 12.0°C (54°F)
Dewpoint: 11.0°C (52°F) [RH = 94%]
Pressure (altimeter): 30.15 inches Hg (1021.0 mb)
Winds: from the SSE (160 degrees) at 7 MPH (6 knots; 3.1 m/s)
Visibility: 6 or more miles (10+ km)
Ceiling: 1000 feet AGL
Clouds: overcast cloud deck at 1000 feet AGL
Weather: no significant weather observed at this time

METAR text: UHPP 240730Z 15004MPS 9999 BKN014 12/11 Q1021 R16R/CLRD70 NOSIG RMK MT OBSC QFE763/1017
Conditions at: UHPP (PETROPAVLOVSK-KA, RU) observed 0730 UTC 24 August 2019
Temperature: 12.0°C (54°F)
Dewpoint: 11.0°C (52°F) [RH = 94%]
Pressure (altimeter): 30.15 inches Hg (1021.0 mb)
Winds: from the SSE (150 degrees) at 9 MPH (8 knots; 4.1 m/s)
Visibility: 6 or more miles (10+ km)
Ceiling: 1400 feet AGL
Clouds: broken clouds at 1400 feet AGL
Weather: no significant weather observed at this time

METAR text: UHPP 240700Z 13004MPS 9999 BKN014 12/11 Q1021 R16R/CLRD70 NOSIG RMK MT OBSC QFE763/1017
Conditions at: UHPP (PETROPAVLOVSK-KA, RU) observed 0700 UTC 24 August 2019
Temperature: 12.0°C (54°F)
Dewpoint: 11.0°C (52°F) [RH = 94%]
Pressure (altimeter): 30.15 inches Hg (1021.0 mb)
Winds: from the SE (130 degrees) at 9 MPH (8 knots; 4.1 m/s)
Visibility: 6 or more miles (10+ km)
Ceiling: 1400 feet AGL
Clouds: broken clouds at 1400 feet AGL
Weather: no significant weather observed at this time

METAR text: UHPP 240630Z 16005MPS 9999 OVC011 12/11 Q1022 R16R/CLRD70 NOSIG RMK MT OBSC QFE763/1018
Conditions at: UHPP (PETROPAVLOVSK-KA, RU) observed 0630 UTC 24 August 2019
Temperature: 12.0°C (54°F)
Dewpoint: 11.0°C (52°F) [RH = 94%]
Pressure (altimeter): 30.18 inches Hg (1022.0 mb)
Winds: from the SSE (160 degrees) at 12 MPH (10 knots; 5.1 m/s)
Visibility: 6 or more miles (10+ km)
Ceiling: 1100 feet AGL
Clouds: overcast cloud deck at 1100 feet AGL
Weather: no significant weather observed at this time

METAR text: UHPP 240600Z 16005MPS 9999 OVC008 13/12 Q1021 R16R/CLRD70 NOSIG RMK MT OBSC QFE763/1017
Conditions at: UHPP (PETROPAVLOVSK-KA, RU) observed 0600 UTC 24 August 2019
Temperature: 13.0°C (55°F)
Dewpoint: 12.0°C (54°F) [RH = 94%]
Pressure (altimeter): 30.15 inches Hg (1021.0 mb)
Winds: from the SSE (160 degrees) at 12 MPH (10 knots; 5.1 m/s)
Visibility: 6 or more miles (10+ km)
Ceiling: 800 feet AGL
Clouds: overcast cloud deck at 800 feet AGL
Weather: no significant weather observed at this time

METAR text: UHPP 240530Z 16005MPS 9999 OVC009 13/12 Q1021 R16R/CLRD70 NOSIG RMK MT OBSC QFE763/1017
Conditions at: UHPP (PETROPAVLOVSK-KA, RU) observed 0530 UTC 24 August 2019
Temperature: 13.0°C (55°F)
Dewpoint: 12.0°C (54°F) [RH = 94%]
Pressure (altimeter): 30.15 inches Hg (1021.0 mb)
Winds: from the SSE (160 degrees) at 12 MPH (10 knots; 5.1 m/s)
Visibility: 6 or more miles (10+ km)
Ceiling: 900 feet AGL
Clouds: overcast cloud deck at 900 feet AGL
Weather: no significant weather observed at this time

METAR text: UHPP 240500Z 18005MPS 9999 OVC011 13/12 Q1021 R16R/CLRD70 NOSIG RMK MT OBSC QFE763/1017
Conditions at: UHPP (PETROPAVLOVSK-KA, RU) observed 0500 UTC 24 August 2019
Temperature: 13.0°C (55°F)
Dewpoint: 12.0°C (54°F) [RH = 94%]
Pressure (altimeter): 30.15 inches Hg (1021.0 mb)
Winds: from the S (180 degrees) at 12 MPH (10 knots; 5.1 m/s)
Visibility: 6 or more miles (10+ km)
Ceiling: 1100 feet AGL
Clouds: overcast cloud deck at 1100 feet AGL
Weather: no significant weather observed at this time

METAR text: UHPP 240430Z 17003MPS 9999 OVC012 14/12 Q1021 R16R/CLRD70 NOSIG RMK MT OBSC QFE762/1017
Conditions at: UHPP (PETROPAVLOVSK-KA, RU) observed 0430 UTC 24 August 2019
Temperature: 14.0°C (57°F)
Dewpoint: 12.0°C (54°F) [RH = 88%]
Pressure (altimeter): 30.15 inches Hg (1021.0 mb)
Winds: from the S (170 degrees) at 7 MPH (6 knots; 3.1 m/s)
Visibility: 6 or more miles (10+ km)
Ceiling: 1200 feet AGL
Clouds: overcast cloud deck at 1200 feet AGL
Weather: no significant weather observed at this time

METAR text: UHPP 240400Z 14004MPS 110V180 9999 OVC010 14/12 Q1021 R16R/CLRD70 NOSIG RMK MT OBSC QFE763/1017
Conditions at: UHPP (PETROPAVLOVSK-KA, RU) observed 0400 UTC 24 August 2019
Temperature: 14.0°C (57°F)
Dewpoint: 12.0°C (54°F) [RH = 88%]
Pressure (altimeter): 30.15 inches Hg (1021.0 mb)
Winds: from the SE (140 degrees) at 9 MPH (8 knots; 4.1 m/s)
Visibility: 6 or more miles (10+ km)
Ceiling: 1000 feet AGL
Clouds: overcast cloud deck at 1000 feet AGL
Weather: no significant weather observed at this time

METAR text: UHPP 240330Z 16004MPS 9999 OVC011 13/12 Q1022 R16R/CLRD70 NOSIG RMK MT OBSC QFE763/1018
Conditions at: UHPP (PETROPAVLOVSK-KA, RU) observed 0330 UTC 24 August 2019
Temperature: 13.0°C (55°F)
Dewpoint: 12.0°C (54°F) [RH = 94%]
Pressure (altimeter): 30.18 inches Hg (1022.0 mb)
Winds: from the SSE (160 degrees) at 9 MPH (8 knots; 4.1 m/s)
Visibility: 6 or more miles (10+ km)
Ceiling: 1100 feet AGL
Clouds: overcast cloud deck at 1100 feet AGL
Weather: no significant weather observed at this time

METAR text: UHPP 240300Z 17005MPS 9999 OVC007 13/13 Q1022 R16R/CLRD70 NOSIG RMK MT OBSC QFE763/1018
Conditions at: UHPP (PETROPAVLOVSK-KA, RU) observed 0300 UTC 24 August 2019
Temperature: 13.0°C (55°F)
Dewpoint: 13.0°C (55°F) [RH = 100%]
Pressure (altimeter): 30.18 inches Hg (1022.0 mb)
Winds: from the S (170 degrees) at 12 MPH (10 knots; 5.1 m/s)
Visibility: 6 or more miles (10+ km)
Ceiling: 700 feet AGL
Clouds: overcast cloud deck at 700 feet AGL
Weather: no significant weather observed at this time

METAR text: UHPP 240230Z 16005MPS 9999 OVC008 14/12 Q1022 R16R/CLRD70 NOSIG RMK MT OBSC QFE763/1017
Conditions at: UHPP (PETROPAVLOVSK-KA, RU) observed 0230 UTC 24 August 2019
Temperature: 14.0°C (57°F)
Dewpoint: 12.0°C (54°F) [RH = 88%]
Pressure (altimeter): 30.18 inches Hg (1022.0 mb)
Winds: from the SSE (160 degrees) at 12 MPH (10 knots; 5.1 m/s)
Visibility: 6 or more miles (10+ km)
Ceiling: 800 feet AGL
Clouds: overcast cloud deck at 800 feet AGL
Weather: no significant weather observed at this time

METAR text: UHPP 240200Z 18004MPS 150V210 9999 OVC010 14/13 Q1021 R16R/CLRD70 NOSIG RMK MT OBSC QFE763/1017
Conditions at: UHPP (PETROPAVLOVSK-KA, RU) observed 0200 UTC 24 August 2019
Temperature: 14.0°C (57°F)
Dewpoint: 13.0°C (55°F) [RH = 94%]
Pressure (altimeter): 30.15 inches Hg (1021.0 mb)
Winds: from the S (180 degrees) at 9 MPH (8 knots; 4.1 m/s)
Visibility: 6 or more miles (10+ km)
Ceiling: 1000 feet AGL
Clouds: overcast cloud deck at 1000 feet AGL
Weather: no significant weather observed at this time

METAR text: UHPP 240130Z 16003MPS 9999 OVC011 14/12 Q1022 R16R/CLRD70 NOSIG RMK MT OBSC QFE763/1017
Conditions at: UHPP (PETROPAVLOVSK-KA, RU) observed 0130 UTC 24 August 2019
Temperature: 14.0°C (57°F)
Dewpoint: 12.0°C (54°F) [RH = 88%]
Pressure (altimeter): 30.18 inches Hg (1022.0 mb)
Winds: from the SSE (160 degrees) at 7 MPH (6 knots; 3.1 m/s)
Visibility: 6 or more miles (10+ km)
Ceiling: 1100 feet AGL
Clouds: overcast cloud deck at 1100 feet AGL
Weather: no significant weather observed at this time

METAR text: UHPP 240100Z 17003MPS 9999 OVC011 14/12 Q1022 R16R/CLRD70 NOSIG RMK MT OBSC QFE763/1017
Conditions at: UHPP (PETROPAVLOVSK-KA, RU) observed 0100 UTC 24 August 2019
Temperature: 14.0°C (57°F)
Dewpoint: 12.0°C (54°F) [RH = 88%]
Pressure (altimeter): 30.18 inches Hg (1022.0 mb)
Winds: from the S (170 degrees) at 7 MPH (6 knots; 3.1 m/s)
Visibility: 6 or more miles (10+ km)
Ceiling: 1100 feet AGL
Clouds: overcast cloud deck at 1100 feet AGL
Weather: no significant weather observed at this time

METAR text: UHPP 240030Z 15002MPS 100V200 9999 OVC010 14/12 Q1022 R16R/CLRD70 NOSIG RMK MT OBSC QFE763/1018
Conditions at: UHPP (PETROPAVLOVSK-KA, RU) observed 0030 UTC 24 August 2019
Temperature: 14.0°C (57°F)
Dewpoint: 12.0°C (54°F) [RH = 88%]
Pressure (altimeter): 30.18 inches Hg (1022.0 mb)
Winds: from the SSE (150 degrees) at 5 MPH (4 knots; 2.1 m/s)
Visibility: 6 or more miles (10+ km)
Ceiling: 1000 feet AGL
Clouds: overcast cloud deck at 1000 feet AGL
Weather: no significant weather observed at this time

METAR text: UHPP 240000Z 14002MPS 080V200 9999 OVC009 13/12 Q1022 R16R/CLRD70 NOSIG RMK MT OBSC QFE763/1018
Conditions at: UHPP (PETROPAVLOVSK-KA, RU) observed 0000 UTC 24 August 2019
Temperature: 13.0°C (55°F)
Dewpoint: 12.0°C (54°F) [RH = 94%]
Pressure (altimeter): 30.18 inches Hg (1022.0 mb)
Winds: from the SE (140 degrees) at 5 MPH (4 knots; 2.1 m/s)
Visibility: 6 or more miles (10+ km)
Ceiling: 900 feet AGL
Clouds: overcast cloud deck at 900 feet AGL
Weather: no significant weather observed at this time

METAR text: UHPP 232330Z 12002MPS 080V190 9999 OVC009 13/12 Q1022 R16R/CLRD70 NOSIG RMK MT OBSC QFE763/1018
Conditions at: UHPP (PETROPAVLOVSK-KA, RU) observed 2330 UTC 23 August 2019
Temperature: 13.0°C (55°F)
Dewpoint: 12.0°C (54°F) [RH = 94%]
Pressure (altimeter): 30.18 inches Hg (1022.0 mb)
Winds: from the ESE (120 degrees) at 5 MPH (4 knots; 2.1 m/s)
Visibility: 6 or more miles (10+ km)
Ceiling: 900 feet AGL
Clouds: overcast cloud deck at 900 feet AGL
Weather: no significant weather observed at this time

METAR text: UHPP 232300Z 13002MPS 100V170 9999 OVC009 13/12 Q1022 R16R/CLRD70 NOSIG RMK MT OBSC QFE763/1018
Conditions at: UHPP (PETROPAVLOVSK-KA, RU) observed 2300 UTC 23 August 2019
Temperature: 13.0°C (55°F)
Dewpoint: 12.0°C (54°F) [RH = 94%]
Pressure (altimeter): 30.18 inches Hg (1022.0 mb)
Winds: from the SE (130 degrees) at 5 MPH (4 knots; 2.1 m/s)
Visibility: 6 or more miles (10+ km)
Ceiling: 900 feet AGL
Clouds: overcast cloud deck at 900 feet AGL
Weather: no significant weather observed at this time

METAR text: UHPP 232230Z 12002MPS 090V150 9999 OVC007 12/12 Q1022 R16R/CLRD70 NOSIG RMK MT OBSC QFE763/1018
Conditions at: UHPP (PETROPAVLOVSK-KA, RU) observed 2230 UTC 23 August 2019
Temperature: 12.0°C (54°F)
Dewpoint: 12.0°C (54°F) [RH = 100%]
Pressure (altimeter): 30.18 inches Hg (1022.0 mb)
Winds: from the ESE (120 degrees) at 5 MPH (4 knots; 2.1 m/s)
Visibility: 6 or more miles (10+ km)
Ceiling: 700 feet AGL
Clouds: overcast cloud deck at 700 feet AGL
Weather: no significant weather observed at this time

METAR text: UHPP 232200Z 14002MPS 110V180 9000 OVC008 12/12 Q1022 R16R/190060 NOSIG RMK MT OBSC QFE763/1018
Conditions at: UHPP (PETROPAVLOVSK-KA, RU) observed 2200 UTC 23 August 2019
Temperature: 12.0°C (54°F)
Dewpoint: 12.0°C (54°F) [RH = 100%]
Pressure (altimeter): 30.18 inches Hg (1022.0 mb)
Winds: from the SE (140 degrees) at 5 MPH (4 knots; 2.1 m/s)
Visibility: 6 miles ( 9 km)
Ceiling: 800 feet AGL
Clouds: overcast cloud deck at 800 feet AGL
Weather: no significant weather observed at this time

METAR text: UHPP 232130Z 18002MPS 140V200 2700 -DZ BR OVC003 11/11 Q1022 R16R/190060 NOSIG RMK MT OBSC QFE763/1018
Conditions at: UHPP (PETROPAVLOVSK-KA, RU) observed 2130 UTC 23 August 2019
Temperature: 11.0°C (52°F)
Dewpoint: 11.0°C (52°F) [RH = 100%]
Pressure (altimeter): 30.18 inches Hg (1022.0 mb)
Winds: from the S (180 degrees) at 5 MPH (4 knots; 2.1 m/s)
Visibility: 1.68 miles (2.70 km)
Ceiling: 300 feet AGL
Clouds: overcast cloud deck at 300 feet AGL
Weather: -DZ BR  (light drizzle, mist)

METAR text: UHPP 232100Z VRB01MPS 0800 0600E R34/0800U DZ FG VV002 11/11 Q1022 R34L/CLRD70 NOSIG RMK MT OBSC QFE763/1017
Conditions at: UHPP (PETROPAVLOVSK-KA, RU) observed 2100 UTC 23 August 2019
Temperature: 11.0°C (52°F)
Dewpoint: 11.0°C (52°F) [RH = 100%]
Pressure (altimeter): 30.18 inches Hg (1022.0 mb)
Winds: variable direction winds at 2 MPH (2 knots; 1.0 m/s)
Visibility: 0.50 miles (0.80 km)
Ceiling: indefinite ceiling with vertical visibility of 200 feet AGL
Clouds: obscured sky
Weather: DZ FG  (moderate drizzle, fog)

METAR text: UHPP 232030Z 19002MPS 130V220 0600 0550SE R34/0600N FG VV002 11/11 Q1022 R34L/CLRD70 NOSIG RMK MT OBSC QFE763/1017
Conditions at: UHPP (PETROPAVLOVSK-KA, RU) observed 2030 UTC 23 August 2019
Temperature: 11.0°C (52°F)
Dewpoint: 11.0°C (52°F) [RH = 100%]
Pressure (altimeter): 30.18 inches Hg (1022.0 mb)
Winds: from the S (190 degrees) at 5 MPH (4 knots; 2.1 m/s)
Visibility: 0.37 miles (0.60 km)
Ceiling: indefinite ceiling with vertical visibility of 200 feet AGL
Clouds: obscured sky
Weather: FG  (fog)

METAR text: UHPP 232000Z 00000MPS 1300 1100SE R34/1100N BR VV001 11/11 Q1022 R34L/CLRD70 NOSIG RMK QBB050 MT OBSC QFE763/1017
Conditions at: UHPP (PETROPAVLOVSK-KA, RU) observed 2000 UTC 23 August 2019
Temperature: 11.0°C (52°F)
Dewpoint: 11.0°C (52°F) [RH = 100%]
Pressure (altimeter): 30.18 inches Hg (1022.0 mb)
Winds: calm
Visibility: 0.81 miles (1.30 km)
Ceiling: indefinite ceiling with vertical visibility of 100 feet AGL
Clouds: obscured sky
Weather: BR  (mist)

METAR text: UHPP 231930Z VRB01MPS 1400 0800N R34/1400N PRFG VV002 10/10 Q1022 R34L/CLRD70 NOSIG RMK MT OBSC QFE763/1017
Conditions at: UHPP (PETROPAVLOVSK-KA, RU) observed 1930 UTC 23 August 2019
Temperature: 10.0°C (50°F)
Dewpoint: 10.0°C (50°F) [RH = 100%]
Pressure (altimeter): 30.18 inches Hg (1022.0 mb)
Winds: variable direction winds at 2 MPH (2 knots; 1.0 m/s)
Visibility: 0.87 miles (1.40 km)
Ceiling: indefinite ceiling with vertical visibility of 200 feet AGL
Clouds: obscured sky
Weather: PRFG  (partial fog)

METAR text: UHPP 231900Z 24001MPS 0400 0250SE R34/0300N FG VV002 10/10 Q1022 R34L/CLRD70 NOSIG RMK MT OBSC QFE763/1017
Conditions at: UHPP (PETROPAVLOVSK-KA, RU) observed 1900 UTC 23 August 2019
Temperature: 10.0°C (50°F)
Dewpoint: 10.0°C (50°F) [RH = 100%]
Pressure (altimeter): 30.18 inches Hg (1022.0 mb)
Winds: from the WSW (240 degrees) at 2 MPH (2 knots; 1.0 m/s)
Visibility: 0.25 miles (0.40 km)
Ceiling: indefinite ceiling with vertical visibility of 200 feet AGL
Clouds: obscured sky
Weather: FG  (fog)

METAR text: UHPP 231830Z 00000MPS 0500 0350SE R16/0500N FG VV002 10/10 Q1021 R16R/CLRD70 NOSIG RMK MT OBSC QFE763/1017
Conditions at: UHPP (PETROPAVLOVSK-KA, RU) observed 1830 UTC 23 August 2019
Temperature: 10.0°C (50°F)
Dewpoint: 10.0°C (50°F) [RH = 100%]
Pressure (altimeter): 30.15 inches Hg (1021.0 mb)
Winds: calm
Visibility: 0.31 miles (0.50 km)
Ceiling: indefinite ceiling with vertical visibility of 200 feet AGL
Clouds: obscured sky
Weather: FG  (fog)

METAR text: UHPP 231800Z 30001MPS 0800 0300N R16/0300N PRFG VV002 10/10 Q1021 R16R/CLRD70 NOSIG RMK QFE763/1017
Conditions at: UHPP (PETROPAVLOVSK-KA, RU) observed 1800 UTC 23 August 2019
Temperature: 10.0°C (50°F)
Dewpoint: 10.0°C (50°F) [RH = 100%]
Pressure (altimeter): 30.15 inches Hg (1021.0 mb)
Winds: from the WNW (300 degrees) at 2 MPH (2 knots; 1.0 m/s)
Visibility: 0.50 miles (0.80 km)
Ceiling: indefinite ceiling with vertical visibility of 200 feet AGL
Clouds: obscured sky
Weather: PRFG  (partial fog)

METAR text: UHPP 231700Z 11001MPS 0200 R16/0200N FG VV002 10/10 Q1021 R16R/CLRD70 NOSIG RMK QFE763/1017
Conditions at: UHPP (PETROPAVLOVSK-KA, RU) observed 1700 UTC 23 August 2019
Temperature: 10.0°C (50°F)
Dewpoint: 10.0°C (50°F) [RH = 100%]
Pressure (altimeter): 30.15 inches Hg (1021.0 mb)
Winds: from the ESE (110 degrees) at 2 MPH (2 knots; 1.0 m/s)
Visibility: 0.12 miles (0.19 km)
Ceiling: indefinite ceiling with vertical visibility of 200 feet AGL
Clouds: obscured sky
Weather: FG  (fog)

METAR text: UHPP 231600Z 06001MPS 0600 0500E R16/0600N PRFG VV001 10/10 Q1021 R16R/CLRD70 NOSIG RMK QBB050 QFE762/1017
Conditions at: UHPP (PETROPAVLOVSK-KA, RU) observed 1600 UTC 23 August 2019
Temperature: 10.0°C (50°F)
Dewpoint: 10.0°C (50°F) [RH = 100%]
Pressure (altimeter): 30.15 inches Hg (1021.0 mb)
Winds: from the ENE (60 degrees) at 2 MPH (2 knots; 1.0 m/s)
Visibility: 0.37 miles (0.60 km)
Ceiling: indefinite ceiling with vertical visibility of 100 feet AGL
Clouds: obscured sky
Weather: PRFG  (partial fog)

METAR text: UHPP 231500Z VRB01MPS 9999 BKN002 10/10 Q1021 R16R/CLRD70 NOSIG RMK QFE763/1017
Conditions at: UHPP (PETROPAVLOVSK-KA, RU) observed 1500 UTC 23 August 2019
Temperature: 10.0°C (50°F)
Dewpoint: 10.0°C (50°F) [RH = 100%]
Pressure (altimeter): 30.15 inches Hg (1021.0 mb)
Winds: variable direction winds at 2 MPH (2 knots; 1.0 m/s)
Visibility: 6 or more miles (10+ km)
Ceiling: 200 feet AGL
Clouds: broken clouds at 200 feet AGL
Weather: no significant weather observed at this time

METAR text: UHPP 231400Z 00000MPS 9999 BKN005 09/09 Q1021 R16R/CLRD70 NOSIG RMK QFE762/1017
Conditions at: UHPP (PETROPAVLOVSK-KA, RU) observed 1400 UTC 23 August 2019
Temperature: 9.0°C (48°F)
Dewpoint: 9.0°C (48°F) [RH = 100%]
Pressure (altimeter): 30.15 inches Hg (1021.0 mb)
Winds: calm
Visibility: 6 or more miles (10+ km)
Ceiling: 500 feet AGL
Clouds: broken clouds at 500 feet AGL
Weather: no significant weather observed at this time

METAR text: UHPP 231300Z 10002MPS 9999 NSC 09/09 Q1021 R16R/CLRD70 NOSIG RMK QFE763/1017
Conditions at: UHPP (PETROPAVLOVSK-KA, RU) observed 1300 UTC 23 August 2019
Temperature: 9.0°C (48°F)
Dewpoint: 9.0°C (48°F) [RH = 100%]
Pressure (altimeter): 30.15 inches Hg (1021.0 mb)
Winds: from the E (100 degrees) at 5 MPH (4 knots; 2.1 m/s)
Visibility: 6 or more miles (10+ km)
Ceiling: at least 12,000 feet AGL
Clouds: sky clear below 12,000 feet AGL
Weather: no significant weather observed at this time

METAR text: UHPP 231200Z 10002MPS 9999 NSC 09/09 Q1021 R16R/CLRD70 NOSIG RMK QFE762/1017
Conditions at: UHPP (PETROPAVLOVSK-KA, RU) observed 1200 UTC 23 August 2019
Temperature: 9.0°C (48°F)
Dewpoint: 9.0°C (48°F) [RH = 100%]
Pressure (altimeter): 30.15 inches Hg (1021.0 mb)
Winds: from the E (100 degrees) at 5 MPH (4 knots; 2.1 m/s)
Visibility: 6 or more miles (10+ km)
Ceiling: at least 12,000 feet AGL
Clouds: sky clear below 12,000 feet AGL
Weather: no significant weather observed at this time

METAR text: UHPP 231100Z 15001MPS 9999 NSC 11/11 Q1021 R16R/CLRD70 NOSIG RMK QFE762/1016
Conditions at: UHPP (PETROPAVLOVSK-KA, RU) observed 1100 UTC 23 August 2019
Temperature: 11.0°C (52°F)
Dewpoint: 11.0°C (52°F) [RH = 100%]
Pressure (altimeter): 30.15 inches Hg (1021.0 mb)
Winds: from the SSE (150 degrees) at 2 MPH (2 knots; 1.0 m/s)
Visibility: 6 or more miles (10+ km)
Ceiling: at least 12,000 feet AGL
Clouds: sky clear below 12,000 feet AGL
Weather: no significant weather observed at this time

METAR text: UHPP 231000Z 15002MPS 9999 NSC 11/11 Q1020 R16R/CLRD70 NOSIG RMK QFE762/1016
Conditions at: UHPP (PETROPAVLOVSK-KA, RU) observed 1000 UTC 23 August 2019
Temperature: 11.0°C (52°F)
Dewpoint: 11.0°C (52°F) [RH = 100%]
Pressure (altimeter): 30.12 inches Hg (1020.0 mb)
Winds: from the SSE (150 degrees) at 5 MPH (4 knots; 2.1 m/s)
Visibility: 6 or more miles (10+ km)
Ceiling: at least 12,000 feet AGL
Clouds: sky clear below 12,000 feet AGL
Weather: no significant weather observed at this time

METAR text: UHPP 230900Z 21003MPS 9999 FEW040 13/12 Q1019 R16R/CLRD70 NOSIG RMK MT OBSC QFE761/1015
Conditions at: UHPP (PETROPAVLOVSK-KA, RU) observed 0900 UTC 23 August 2019
Temperature: 13.0°C (55°F)
Dewpoint: 12.0°C (54°F) [RH = 94%]
Pressure (altimeter): 30.09 inches Hg (1019.0 mb)
Winds: from the SSW (210 degrees) at 7 MPH (6 knots; 3.1 m/s)
Visibility: 6 or more miles (10+ km)
Ceiling: at least 12,000 feet AGL
Clouds: few clouds at 4000 feet AGL
Weather: no significant weather observed at this time

METAR text: UHPP 230800Z 21003MPS 9999 FEW040 15/12 Q1019 R16R/CLRD70 NOSIG RMK MT OBSC QFE761/1015
Conditions at: UHPP (PETROPAVLOVSK-KA, RU) observed 0800 UTC 23 August 2019
Temperature: 15.0°C (59°F)
Dewpoint: 12.0°C (54°F) [RH = 82%]
Pressure (altimeter): 30.09 inches Hg (1019.0 mb)
Winds: from the SSW (210 degrees) at 7 MPH (6 knots; 3.1 m/s)
Visibility: 6 or more miles (10+ km)
Ceiling: at least 12,000 feet AGL
Clouds: few clouds at 4000 feet AGL
Weather: no significant weather observed at this time

METAR text: UHPP 230730Z 21004MPS 9999 FEW040 16/12 Q1019 R16R/CLRD70 NOSIG RMK MT OBSC QFE761/1015
Conditions at: UHPP (PETROPAVLOVSK-KA, RU) observed 0730 UTC 23 August 2019
Temperature: 16.0°C (61°F)
Dewpoint: 12.0°C (54°F) [RH = 77%]
Pressure (altimeter): 30.09 inches Hg (1019.0 mb)
Winds: from the SSW (210 degrees) at 9 MPH (8 knots; 4.1 m/s)
Visibility: 6 or more miles (10+ km)
Ceiling: at least 12,000 feet AGL
Clouds: few clouds at 4000 feet AGL
Weather: no significant weather observed at this time

METAR text: UHPP 230700Z 20005MPS 9999 FEW040 16/12 Q1019 R16R/CLRD70 NOSIG RMK MT OBSC QFE761/1015
Conditions at: UHPP (PETROPAVLOVSK-KA, RU) observed 0700 UTC 23 August 2019
Temperature: 16.0°C (61°F)
Dewpoint: 12.0°C (54°F) [RH = 77%]
Pressure (altimeter): 30.09 inches Hg (1019.0 mb)
Winds: from the SSW (200 degrees) at 12 MPH (10 knots; 5.1 m/s)
Visibility: 6 or more miles (10+ km)
Ceiling: at least 12,000 feet AGL
Clouds: few clouds at 4000 feet AGL
Weather: no significant weather observed at this time

METAR text: UHPP 230630Z 19005MPS 9999 FEW040 17/13 Q1018 R16R/CLRD70 NOSIG RMK MT OBSC QFE761/1014
Conditions at: UHPP (PETROPAVLOVSK-KA, RU) observed 0630 UTC 23 August 2019
Temperature: 17.0°C (63°F)
Dewpoint: 13.0°C (55°F) [RH = 77%]
Pressure (altimeter): 30.06 inches Hg (1018.0 mb)
Winds: from the S (190 degrees) at 12 MPH (10 knots; 5.1 m/s)
Visibility: 6 or more miles (10+ km)
Ceiling: at least 12,000 feet AGL
Clouds: few clouds at 4000 feet AGL
Weather: no significant weather observed at this time

METAR text: UHPP 230600Z 18006MPS 9999 FEW040 17/13 Q1018 R16R/CLRD70 NOSIG RMK MT OBSC QFE761/1014
Conditions at: UHPP (PETROPAVLOVSK-KA, RU) observed 0600 UTC 23 August 2019
Temperature: 17.0°C (63°F)
Dewpoint: 13.0°C (55°F) [RH = 77%]
Pressure (altimeter): 30.06 inches Hg (1018.0 mb)
Winds: from the S (180 degrees) at 14 MPH (12 knots; 6.2 m/s)
Visibility: 6 or more miles (10+ km)
Ceiling: at least 12,000 feet AGL
Clouds: few clouds at 4000 feet AGL
Weather: no significant weather observed at this time

METAR text: UHPP 230530Z 17005MPS 9999 FEW040 18/13 Q1018 R34L/CLRD70 NOSIG RMK MT OBSC QFE760/1013
Conditions at: UHPP (PETROPAVLOVSK-KA, RU) observed 0530 UTC 23 August 2019
Temperature: 18.0°C (64°F)
Dewpoint: 13.0°C (55°F) [RH = 73%]
Pressure (altimeter): 30.06 inches Hg (1018.0 mb)
Winds: from the S (170 degrees) at 12 MPH (10 knots; 5.1 m/s)
Visibility: 6 or more miles (10+ km)
Ceiling: at least 12,000 feet AGL
Clouds: few clouds at 4000 feet AGL
Weather: no significant weather observed at this time

METAR text: UHPP 230500Z 17006MPS 9999 FEW040 18/13 Q1018 R34L/CLRD70 NOSIG RMK MT OBSC QFE760/1013
Conditions at: UHPP (PETROPAVLOVSK-KA, RU) observed 0500 UTC 23 August 2019
Temperature: 18.0°C (64°F)
Dewpoint: 13.0°C (55°F) [RH = 73%]
Pressure (altimeter): 30.06 inches Hg (1018.0 mb)
Winds: from the S (170 degrees) at 14 MPH (12 knots; 6.2 m/s)
Visibility: 6 or more miles (10+ km)
Ceiling: at least 12,000 feet AGL
Clouds: few clouds at 4000 feet AGL
Weather: no significant weather observed at this time

METAR text: UHPP 230430Z 16006MPS 9999 FEW040 18/13 Q1018 R34L/CLRD70 NOSIG RMK MT OBSC QFE760/1013
Conditions at: UHPP (PETROPAVLOVSK-KA, RU) observed 0430 UTC 23 August 2019
Temperature: 18.0°C (64°F)
Dewpoint: 13.0°C (55°F) [RH = 73%]
Pressure (altimeter): 30.06 inches Hg (1018.0 mb)
Winds: from the SSE (160 degrees) at 14 MPH (12 knots; 6.2 m/s)
Visibility: 6 or more miles (10+ km)
Ceiling: at least 12,000 feet AGL
Clouds: few clouds at 4000 feet AGL
Weather: no significant weather observed at this time

METAR text: UHPP 230400Z 17006MPS 9999 FEW040 19/13 Q1018 R34L/CLRD70 NOSIG RMK MT OBSC QFE760/1013
Conditions at: UHPP (PETROPAVLOVSK-KA, RU) observed 0400 UTC 23 August 2019
Temperature: 19.0°C (66°F)
Dewpoint: 13.0°C (55°F) [RH = 68%]
Pressure (altimeter): 30.06 inches Hg (1018.0 mb)
Winds: from the S (170 degrees) at 14 MPH (12 knots; 6.2 m/s)
Visibility: 6 or more miles (10+ km)
Ceiling: at least 12,000 feet AGL
Clouds: few clouds at 4000 feet AGL
Weather: no significant weather observed at this time

METAR text: UHPP 230330Z 17005MPS 9999 FEW040 19/13 Q1018 R34L/CLRD70 NOSIG RMK MT OBSC QFE760/1013
Conditions at: UHPP (PETROPAVLOVSK-KA, RU) observed 0330 UTC 23 August 2019
Temperature: 19.0°C (66°F)
Dewpoint: 13.0°C (55°F) [RH = 68%]
Pressure (altimeter): 30.06 inches Hg (1018.0 mb)
Winds: from the S (170 degrees) at 12 MPH (10 knots; 5.1 m/s)
Visibility: 6 or more miles (10+ km)
Ceiling: at least 12,000 feet AGL
Clouds: few clouds at 4000 feet AGL
Weather: no significant weather observed at this time

METAR text: UHPP 230300Z 17005MPS 9999 FEW030 19/12 Q1018 R34L/CLRD70 NOSIG RMK MT OBSC QFE760/1013
Conditions at: UHPP (PETROPAVLOVSK-KA, RU) observed 0300 UTC 23 August 2019
Temperature: 19.0°C (66°F)
Dewpoint: 12.0°C (54°F) [RH = 64%]
Pressure (altimeter): 30.06 inches Hg (1018.0 mb)
Winds: from the S (170 degrees) at 12 MPH (10 knots; 5.1 m/s)
Visibility: 6 or more miles (10+ km)
Ceiling: at least 12,000 feet AGL
Clouds: few clouds at 3000 feet AGL
Weather: no significant weather observed at this time

Forecast for: UHPP (PETROPAVLOVSK-KA, RU)
Text: TAF UHPP 241334Z 2415/2521 16003G08MPS 9999 OVC011
Forecast period: 1500 UTC 24 August 2019 to 0600 UTC 25 August 2019
Forecast type: FROM: standard forecast or significant change
Winds: from the SSE (160 degrees) at 7 MPH (6 knots; 3.1 m/s)
gusting to 18 MPH (16 knots; 8.2 m/s)
Visibility: 6 or more miles 10+ km)
Ceiling: 1100 feet AGL
Clouds: overcast cloud deck at 1100 feet AGL
Weather: no significant weather forecast for this period
Text: TEMPO 2415/2421 0700 FG VV002
Forecast period: 1500 to 2100 UTC 24 August 2019
Forecast type: TEMPORARY: The following changes expected for less than half the time period
Visibility: 0.43 miles (0.69 km)
Ceiling: indefinite ceiling with vertical visibility of 200 feet AGL
Clouds: obscured sky
Weather: FG  (fog)
Text: TEMPO 2421/2506 -SHRA BKN004 OVC015CB
Forecast period: 2100 UTC 24 August 2019 to 0600 UTC 25 August 2019
Forecast type: TEMPORARY: The following changes expected for less than half the time period
Visibility: missing
Ceiling: 400 feet AGL
Clouds: broken clouds at 400 feet AGL
overcast cloud deck at 1500 feet AGL
Weather: -SHRA  (light rain showers)
Text: FM250600 16003G12MPS 5000 -SHRA BKN010 OVC020CB
Forecast period: 0600 to 2100 UTC 25 August 2019
Forecast type: FROM: standard forecast or significant change
Winds: from the SSE (160 degrees) at 7 MPH (6 knots; 3.1 m/s)
gusting to 26 MPH (23 knots; 11.8 m/s)
Visibility: 3 miles (5 km)
Ceiling: 1000 feet AGL
Clouds: broken clouds at 1000 feet AGL
overcast cloud deck at 2000 feet AGL
Weather: -SHRA  (light rain showers)
Text: TEMPO 2506/2521 1000 SHRA VV003
Forecast period: 0600 to 2100 UTC 25 August 2019
Forecast type: TEMPORARY: The following changes expected for less than half the time period
Visibility: 0.62 miles (1.00 km)
Ceiling: indefinite ceiling with vertical visibility of 300 feet AGL
Clouds: obscured sky
Weather: SHRA  (rain showers)